Time;durP1;ratioP1;P1;durP2;ratioP2;P2;SDS_P1;SDS_P2;PMS_P1;PMS_P2;Temp;Humidity;BMP_temperature;BMP_pressure;BME280_temperature;BME280_humidity;BME280_pressure;Samples;Min_cycle;Max_cycle;Signal;HPM_P1;HPM_P2
2023/03/15 00:01:25;;;;;;;33.13;7.97;;;15.00;82.10;;;;;;5080877;22;20031;-77
2023/03/15 00:03:51;;;;;;;42.20;8.13;;;14.90;82.20;;;;;;5033377;28;20532;-78
2023/03/15 00:06:16;;;;;;;37.28;8.15;;;14.90;82.40;;;;;;5033961;28;20029;-76
2023/03/15 00:08:46;;;;;;;38.33;9.23;;;14.90;82.40;;;;;;5033943;28;20183;-75
2023/03/15 00:11:13;;;;;;;34.90;8.15;;;14.90;82.40;;;;;;5016666;28;20040;-76
2023/03/15 00:13:38;;;;;;;40.30;7.85;;;14.90;82.60;;;;;;5033351;28;20108;-77
2023/03/15 00:16:04;;;;;;;38.83;7.63;;;14.80;82.30;;;;;;5033604;28;20127;-77
2023/03/15 00:18:30;;;;;;;33.83;9.18;;;14.80;82.70;;;;;;5033720;28;20381;-77
2023/03/15 00:20:56;;;;;;;35.42;8.68;;;14.80;82.70;;;;;;5034518;28;20075;-77
2023/03/15 00:23:22;;;;;;;34.75;8.63;;;14.80;82.70;;;;;;5016369;28;20042;-76
2023/03/15 00:25:49;;;;;;;35.42;7.55;;;14.80;82.80;;;;;;5034073;28;20029;-76
2023/03/15 00:28:16;;;;;;;23.23;7.90;;;14.80;82.80;;;;;;5033577;28;20080;-77
2023/03/15 00:30:42;;;;;;;39.17;8.50;;;14.80;82.80;;;;;;5033528;28;20083;-75
2023/03/15 00:33:12;;;;;;;31.10;8.18;;;14.80;82.60;;;;;;5033311;28;20033;-75
2023/03/15 00:35:40;;;;;;;31.52;8.63;;;14.80;82.60;;;;;;5033296;28;20038;-77
2023/03/15 00:38:07;;;;;;;33.53;8.18;;;14.80;82.70;;;;;;5033483;28;20037;-77
2023/03/15 00:40:32;;;;;;;30.92;7.80;;;14.80;82.80;;;;;;5033110;28;20030;-77
2023/03/15 00:42:58;;;;;;;43.40;9.57;;;14.80;82.90;;;;;;5033467;28;20052;-77
2023/03/15 00:45:24;;;;;;;35.00;8.80;;;14.80;82.80;;;;;;5033347;28;20089;-77
2023/03/15 00:47:51;;;;;;;40.65;9.38;;;14.80;82.90;;;;;;5033381;28;20075;-77
2023/03/15 00:50:17;;;;;;;32.83;7.57;;;14.80;82.80;;;;;;5033169;28;20033;-77
2023/03/15 00:52:43;;;;;;;40.03;9.23;;;14.80;82.80;;;;;;5033459;28;20421;-75
2023/03/15 00:55:14;;;;;;;38.80;8.57;;;14.80;83.00;;;;;;5034085;28;20113;-76
2023/03/15 00:57:41;;;;;;;30.23;7.78;;;14.80;82.70;;;;;;5033805;28;20117;-75
2023/03/15 01:00:10;;;;;;;27.17;8.15;;;14.80;82.70;;;;;;5033356;28;20064;-77
2023/03/15 01:02:36;;;;;;;33.20;8.10;;;14.90;83.00;;;;;;5041900;28;20049;-77
2023/03/15 01:05:04;;;;;;;31.75;8.07;;;14.90;82.80;;;;;;5040902;28;20031;-76
2023/03/15 01:07:32;;;;;;;34.47;7.93;;;14.80;82.80;;;;;;5032667;28;20124;-77
2023/03/15 01:09:58;;;;;;;29.55;7.70;;;14.90;82.70;;;;;;5032684;28;20125;-76
2023/03/15 01:12:24;;;;;;;32.53;7.93;;;14.90;82.60;;;;;;5032994;28;20071;-78
2023/03/15 01:14:49;;;;;;;40.38;8.57;;;14.90;82.70;;;;;;5032853;28;20030;-77
2023/03/15 01:17:15;;;;;;;29.92;7.72;;;14.90;82.70;;;;;;5032680;28;20398;-76
2023/03/15 01:19:41;;;;;;;41.03;7.30;;;14.90;82.70;;;;;;5032783;28;20068;-77
2023/03/15 01:22:06;;;;;;;28.13;7.57;;;14.90;82.70;;;;;;5032566;28;20069;-76
2023/03/15 01:24:32;;;;;;;29.42;6.75;;;14.90;82.60;;;;;;5032812;28;20129;-76
2023/03/15 01:26:58;;;;;;;26.60;6.35;;;14.90;82.30;;;;;;5031351;28;20045;-76
2023/03/15 01:29:24;;;;;;;24.52;6.68;;;14.90;82.30;;;;;;5032479;28;20046;-77
2023/03/15 01:31:49;;;;;;;34.92;6.18;;;14.90;82.20;;;;;;5030984;28;20033;-76
2023/03/15 01:34:15;;;;;;;25.13;6.50;;;15.00;82.00;;;;;;5032601;28;20103;-76
2023/03/15 01:36:41;;;;;;;26.70;6.70;;;15.00;81.90;;;;;;5032438;28;20481;-76
2023/03/15 01:39:06;;;;;;;27.73;6.13;;;15.00;81.60;;;;;;5033292;28;20029;-76
2023/03/15 01:41:32;;;;;;;26.25;7.00;;;15.00;81.40;;;;;;5032836;28;20034;-76
2023/03/15 01:43:58;;;;;;;24.73;6.00;;;15.00;81.40;;;;;;5032605;28;20144;-78
2023/03/15 01:46:27;;;;;;;25.58;6.97;;;15.00;81.40;;;;;;5032687;28;20490;-76
2023/03/15 01:48:59;;;;;;;22.88;6.53;;;15.00;81.50;;;;;;5032374;28;20128;-75
2023/03/15 01:51:35;;;;;;;23.40;6.03;;;15.00;81.60;;;;;;5032482;28;20044;-75
2023/03/15 01:54:22;;;;;;;29.73;6.40;;;15.00;82.40;;;;;;5032554;28;20060;-75
2023/03/15 01:57:05;;;;;;;25.40;7.00;;;15.10;81.70;;;;;;5032486;28;20042;-76
2023/03/15 01:59:41;;;;;;;24.13;6.82;;;15.10;81.60;;;;;;5032431;28;20037;-76
2023/03/15 02:02:08;;;;;;;25.40;6.82;;;15.10;81.60;;;;;;5032014;28;20050;-75
2023/03/15 02:04:38;;;;;;;27.27;6.95;;;15.00;81.40;;;;;;5034464;28;20041;-75
2023/03/15 02:07:05;;;;;;;22.35;6.60;;;15.00;81.40;;;;;;5035741;28;20488;-74
2023/03/15 02:09:45;;;;;;;26.90;6.63;;;15.00;81.60;;;;;;5001507;28;20042;-75
2023/03/15 02:12:11;;;;;;;27.63;7.03;;;15.00;81.60;;;;;;5035524;28;20032;-76
2023/03/15 02:14:37;;;;;;;27.40;7.10;;;15.00;81.70;;;;;;5035824;28;20389;-76
2023/03/15 02:17:03;;;;;;;26.33;7.72;;;14.90;81.70;;;;;;5035709;28;20029;-77
2023/03/15 02:19:29;;;;;;;25.10;8.77;;;14.90;81.70;;;;;;5017854;28;20045;-75
2023/03/15 02:22:07;;;;;;;25.73;8.75;;;14.90;82.00;;;;;;5035424;28;20025;-76
2023/03/15 02:24:43;;;;;;;26.35;9.20;;;14.90;82.10;;;;;;5034861;28;20040;-75
2023/03/15 02:27:09;;;;;;;24.58;8.15;;;14.80;82.30;;;;;;5035839;28;20029;-75
2023/03/15 02:29:35;;;;;;;29.38;8.68;;;14.80;82.50;;;;;;5035866;28;20493;-76
2023/03/15 02:32:04;;;;;;;26.80;8.82;;;14.80;82.70;;;;;;5035385;28;20087;-76
2023/03/15 02:34:30;;;;;;;18.63;8.93;;;14.80;82.70;;;;;;5035343;28;20045;-77
2023/03/15 02:36:56;;;;;;;25.92;11.15;;;14.70;82.80;;;;;;5035013;28;20053;-75
2023/03/15 02:39:23;;;;;;;23.40;10.35;;;14.60;83.00;;;;;;5035325;28;20448;-77
2023/03/15 02:41:52;;;;;;;23.77;9.98;;;14.50;83.30;;;;;;5035142;28;20441;-78
2023/03/15 02:44:23;;;;;;;26.88;9.48;;;14.40;83.60;;;;;;5035323;28;20037;-76
2023/03/15 02:46:52;;;;;;;28.60;11.23;;;14.30;84.50;;;;;;5035833;28;20075;-76
2023/03/15 02:49:22;;;;;;;27.73;10.18;;;14.30;84.20;;;;;;5035206;28;20053;-75
2023/03/15 02:51:48;;;;;;;26.00;10.23;;;14.20;84.40;;;;;;5034953;28;20034;-77
2023/03/15 02:54:14;;;;;;;23.90;10.15;;;14.10;84.90;;;;;;5035015;28;20504;-77
2023/03/15 02:56:39;;;;;;;25.52;11.00;;;14.10;85.60;;;;;;5034858;28;20044;-76
2023/03/15 02:59:05;;;;;;;26.45;10.30;;;14.10;85.90;;;;;;5034990;28;20067;-76
2023/03/15 03:01:31;;;;;;;27.83;11.30;;;14.10;85.90;;;;;;5034572;28;20052;-76
2023/03/15 03:03:56;;;;;;;19.45;10.23;;;14.10;86.00;;;;;;5035134;28;20033;-75
2023/03/15 03:06:22;;;;;;;29.48;9.80;;;14.00;86.70;;;;;;5035091;28;20072;-75
2023/03/15 03:08:48;;;;;;;23.38;9.90;;;14.00;86.30;;;;;;5035125;28;20053;-76
2023/03/15 03:11:15;;;;;;;24.23;10.35;;;14.00;86.70;;;;;;5035420;28;20021;-77
2023/03/15 03:13:41;;;;;;;22.38;10.45;;;14.00;87.00;;;;;;5034942;28;20555;-74
2023/03/15 03:16:08;;;;;;;27.65;11.18;;;13.90;87.20;;;;;;5034541;28;20036;-76
2023/03/15 03:18:34;;;;;;;28.05;11.05;;;13.90;87.20;;;;;;5035111;28;20080;-74
2023/03/15 03:21:04;;;;;;;22.40;10.68;;;13.80;87.30;;;;;;5035024;28;20117;-77
2023/03/15 03:23:32;;;;;;;36.15;11.20;;;13.70;87.50;;;;;;5034405;28;20461;-74
2023/03/15 03:25:58;;;;;;;25.98;10.63;;;13.70;87.80;;;;;;5034028;28;20064;-75
2023/03/15 03:28:26;;;;;;;26.17;10.00;;;13.60;87.80;;;;;;5034003;28;20073;-75
2023/03/15 03:30:53;;;;;;;31.40;11.10;;;13.60;88.20;;;;;;5033786;28;20037;-75
2023/03/15 03:33:20;;;;;;;27.73;11.82;;;13.60;88.30;;;;;;5033974;28;20037;-76
2023/03/15 03:35:46;;;;;;;30.63;10.43;;;13.60;88.50;;;;;;5034391;28;20104;-76
2023/03/15 03:38:12;;;;;;;26.83;11.10;;;13.60;88.90;;;;;;5034052;28;20076;-75
2023/03/15 03:40:38;;;;;;;24.70;10.93;;;13.60;89.00;;;;;;5033889;28;20079;-75
2023/03/15 03:43:05;;;;;;;26.85;10.88;;;13.60;88.90;;;;;;5033946;28;20041;-75
2023/03/15 03:45:30;;;;;;;24.83;10.48;;;13.70;88.70;;;;;;5033918;28;20025;-75
2023/03/15 03:47:56;;;;;;;26.15;10.85;;;13.70;88.80;;;;;;5032489;28;20045;-77
2023/03/15 03:50:22;;;;;;;26.08;10.98;;;13.70;88.90;;;;;;5016422;28;20087;-75
2023/03/15 03:52:48;;;;;;;28.48;11.07;;;13.70;88.70;;;;;;5033847;28;20112;-74
2023/03/15 03:55:14;;;;;;;30.83;11.48;;;13.70;89.20;;;;;;5035298;28;20036;-76
2023/03/15 03:57:40;;;;;;;23.23;11.68;;;13.70;89.30;;;;;;5036852;28;20038;-76
2023/03/15 04:00:09;;;;;;;29.63;11.60;;;13.60;89.70;;;;;;5016364;28;20038;-75
2023/03/15 04:02:35;;;;;;;25.05;11.77;;;13.60;89.40;;;;;;5033099;28;20478;-75
2023/03/15 04:05:01;;;;;;;26.98;11.90;;;13.60;89.80;;;;;;5033524;28;20041;-75
2023/03/15 04:07:27;;;;;;;23.10;11.88;;;13.60;89.70;;;;;;5015438;28;20036;-76
2023/03/15 04:09:52;;;;;;;29.55;12.40;;;13.60;89.80;;;;;;5033380;28;20041;-74
2023/03/15 04:12:18;;;;;;;26.10;13.13;;;13.60;89.70;;;;;;5033231;28;20104;-75
2023/03/15 04:14:44;;;;;;;27.75;12.38;;;13.60;89.80;;;;;;5033205;28;20112;-74
2023/03/15 04:17:10;;;;;;;29.00;13.18;;;13.50;89.70;;;;;;5033058;28;20026;-77
2023/03/15 04:19:35;;;;;;;29.15;12.63;;;13.40;90.00;;;;;;5033110;28;20091;-75
2023/03/15 04:22:05;;;;;;;27.23;12.70;;;13.40;90.00;;;;;;5033128;28;20044;-75
2023/03/15 04:24:34;;;;;;;22.15;12.63;;;13.30;90.10;;;;;;5033044;28;20033;-76
2023/03/15 04:27:00;;;;;;;21.55;11.85;;;13.30;90.20;;;;;;5033163;28;20037;-74
2023/03/15 04:29:26;;;;;;;22.42;11.93;;;13.40;90.10;;;;;;5014653;28;20480;-75
2023/03/15 04:31:52;;;;;;;22.05;11.63;;;13.50;90.10;;;;;;5032926;28;20036;-74
2023/03/15 04:34:18;;;;;;;26.08;12.27;;;13.60;90.30;;;;;;5032975;28;20029;-76
2023/03/15 04:36:43;;;;;;;29.60;11.38;;;13.60;90.00;;;;;;5032947;28;20473;-77
2023/03/15 04:39:11;;;;;;;24.85;11.25;;;13.60;89.80;;;;;;5033024;28;20036;-76
2023/03/15 04:41:38;;;;;;;20.95;10.38;;;13.60;90.00;;;;;;5033769;28;20358;-76
2023/03/15 04:44:04;;;;;;;27.73;10.75;;;13.50;89.80;;;;;;5034222;28;20448;-77
2023/03/15 04:46:31;;;;;;;19.08;10.07;;;13.50;90.00;;;;;;5032899;28;20049;-75
2023/03/15 04:48:57;;;;;;;22.92;9.63;;;13.50;89.60;;;;;;5032750;28;20077;-75
2023/03/15 04:51:23;;;;;;;20.42;10.45;;;13.50;89.70;;;;;;5032595;28;20033;-78
2023/03/15 04:53:49;;;;;;;18.90;9.40;;;13.40;89.60;;;;;;5032641;28;20448;-76
2023/03/15 04:56:15;;;;;;;25.23;10.48;;;13.40;89.80;;;;;;5032606;28;20092;-75
2023/03/15 04:58:41;;;;;;;26.58;10.95;;;13.30;89.80;;;;;;5032402;28;20485;-76
2023/03/15 05:01:06;;;;;;;18.92;9.18;;;13.20;89.60;;;;;;5014536;28;20042;-75
2023/03/15 05:03:32;;;;;;;22.00;8.95;;;13.10;89.60;;;;;;5032445;28;20107;-76
2023/03/15 05:06:06;;;;;;;24.80;8.93;;;13.00;89.80;;;;;;5032409;28;20075;-76
2023/03/15 05:08:34;;;;;;;19.55;7.68;;;13.00;89.70;;;;;;5032056;28;20099;-76
2023/03/15 05:11:00;;;;;;;18.77;6.90;;;13.00;89.40;;;;;;5032547;28;20041;-75
2023/03/15 05:13:26;;;;;;;14.98;5.72;;;12.90;89.00;;;;;;5015002;28;20044;-76
2023/03/15 05:15:51;;;;;;;19.55;5.82;;;12.90;88.50;;;;;;5032387;28;20022;-76
2023/03/15 05:18:17;;;;;;;23.98;7.22;;;12.90;88.40;;;;;;5031172;28;20144;-76
2023/03/15 05:20:43;;;;;;;19.50;8.13;;;12.90;88.20;;;;;;5032254;28;20029;-76
2023/03/15 05:23:08;;;;;;;20.92;6.90;;;12.90;87.80;;;;;;5032420;28;20037;-75
2023/03/15 05:25:35;;;;;;;19.45;6.82;;;12.80;87.50;;;;;;5014773;28;20041;-76
2023/03/15 05:28:03;;;;;;;14.80;5.63;;;12.80;87.20;;;;;;5033179;28;20551;-77
2023/03/15 05:30:29;;;;;;;20.42;6.20;;;12.80;87.20;;;;;;5033061;28;20033;-76
2023/03/15 05:32:55;;;;;;;16.80;5.22;;;12.80;87.20;;;;;;5033459;28;20068;-76
2023/03/15 05:35:25;;;;;;;14.55;5.10;;;12.90;87.00;;;;;;5032375;28;20041;-75
2023/03/15 05:38:00;;;;;;;15.10;5.03;;;13.00;86.60;;;;;;5032289;28;20037;-75
2023/03/15 05:40:28;;;;;;;17.98;4.93;;;13.00;86.40;;;;;;5035866;28;20365;-76
2023/03/15 05:42:57;;;;;;;17.33;5.50;;;13.00;86.20;;;;;;5035843;28;20045;-76
2023/03/15 05:45:23;;;;;;;18.95;4.93;;;13.00;85.80;;;;;;5036078;28;20083;-75
2023/03/15 05:47:49;;;;;;;15.07;4.70;;;13.10;85.60;;;;;;5035805;28;20421;-75
2023/03/15 05:50:15;;;;;;;17.38;5.55;;;13.20;85.30;;;;;;5035774;28;20132;-76
2023/03/15 05:52:41;;;;;;;17.45;4.97;;;13.30;84.90;;;;;;5036019;28;20160;-77
2023/03/15 05:55:07;;;;;;;18.77;5.32;;;13.30;84.10;;;;;;5036174;28;20033;-76
2023/03/15 05:57:33;;;;;;;18.55;4.47;;;13.40;84.30;;;;;;5035926;28;20057;-75
2023/03/15 05:59:58;;;;;;;18.10;4.65;;;13.50;83.50;;;;;;5036029;28;20517;-76
2023/03/15 06:02:24;;;;;;;16.58;5.50;;;13.50;82.50;;;;;;5014710;28;20042;-76
2023/03/15 06:04:50;;;;;;;20.17;5.03;;;13.50;82.40;;;;;;5015671;28;20034;-76
2023/03/15 06:07:16;;;;;;;15.35;4.13;;;13.50;82.10;;;;;;5015595;28;20395;-75
2023/03/15 06:09:41;;;;;;;26.67;5.38;;;13.50;81.40;;;;;;5015565;28;20038;-75
2023/03/15 06:12:07;;;;;;;13.70;3.63;;;13.50;81.40;;;;;;5016767;28;20088;-77
2023/03/15 06:14:33;;;;;;;18.17;4.35;;;13.50;81.00;;;;;;5019779;28;20041;-78
2023/03/15 06:16:59;;;;;;;16.23;3.83;;;13.50;80.80;;;;;;5017478;28;20041;-77
2023/03/15 06:19:24;;;;;;;15.48;3.80;;;13.50;80.80;;;;;;5014080;28;20038;-78
2023/03/15 06:21:50;;;;;;;17.70;3.78;;;13.50;80.20;;;;;;5015731;28;20030;-77
2023/03/15 06:24:16;;;;;;;16.80;4.25;;;13.60;79.90;;;;;;5015921;28;20042;-77
2023/03/15 06:26:42;;;;;;;16.65;4.28;;;13.60;79.40;;;;;;5015658;28;20030;-75
2023/03/15 06:29:07;;;;;;;19.63;4.40;;;13.80;79.20;;;;;;5015611;28;20128;-75
2023/03/15 06:31:33;;;;;;;19.95;4.32;;;13.70;78.60;;;;;;5015741;28;20600;-77
2023/03/15 06:34:00;;;;;;;15.63;4.28;;;13.80;78.80;;;;;;5015703;28;20057;-76
2023/03/15 06:36:26;;;;;;;14.55;3.90;;;13.80;78.20;;;;;;5015546;28;20041;-77
2023/03/15 06:38:53;;;;;;;16.98;3.55;;;14.00;78.20;;;;;;5016202;28;20030;-76
2023/03/15 06:41:19;;;;;;;21.55;4.78;;;14.00;77.70;;;;;;4997768;28;20030;-76
2023/03/15 06:43:44;;;;;;;19.67;4.25;;;14.10;77.60;;;;;;5015151;28;20497;-76
2023/03/15 06:46:10;;;;;;;20.13;5.15;;;14.20;76.70;;;;;;5015149;28;20038;-75
2023/03/15 06:48:36;;;;;;;17.67;3.55;;;14.20;76.30;;;;;;5015295;28;20046;-77
2023/03/15 06:51:04;;;;;;;21.17;4.38;;;14.30;76.10;;;;;;4996421;28;20036;-77
2023/03/15 06:53:30;;;;;;;18.50;4.57;;;14.40;76.10;;;;;;5015429;28;20048;-78
2023/03/15 06:55:56;;;;;;;15.38;3.83;;;14.50;75.90;;;;;;5015622;28;20030;-75
2023/03/15 06:58:21;;;;;;;18.75;4.18;;;14.60;75.70;;;;;;5018618;28;20117;-75
2023/03/15 07:00:48;;;;;;;17.85;3.58;;;14.60;75.40;;;;;;5016524;28;20156;-79
2023/03/15 07:03:14;;;;;;;18.67;3.92;;;14.70;75.50;;;;;;5011428;28;20049;-77
2023/03/15 07:05:39;;;;;;;14.63;3.65;;;14.80;75.30;;;;;;5009030;28;20030;-76
2023/03/15 07:08:06;;;;;;;24.30;4.05;;;14.90;75.40;;;;;;5014744;28;20038;-80
2023/03/15 07:10:31;;;;;;;18.30;3.45;;;15.00;74.90;;;;;;5015069;28;20066;-76
2023/03/15 07:12:57;;;;;;;13.63;3.75;;;15.00;74.50;;;;;;5016012;28;20088;-77
2023/03/15 07:15:23;;;;;;;15.52;4.35;;;15.10;74.30;;;;;;5004773;28;20061;-75
2023/03/15 07:17:48;;;;;;;16.30;3.78;;;15.10;74.40;;;;;;5037051;28;20030;-75
2023/03/15 07:20:14;;;;;;;14.40;3.80;;;15.10;74.10;;;;;;5023855;28;20057;-78
2023/03/15 07:22:40;;;;;;;20.88;4.57;;;15.10;74.20;;;;;;4997349;28;20040;-76
2023/03/15 07:25:06;;;;;;;16.67;3.75;;;15.20;74.10;;;;;;5014374;28;20033;-82
2023/03/15 07:27:32;;;;;;;16.85;3.83;;;15.20;74.10;;;;;;5018625;28;20034;-79
2023/03/15 07:29:59;;;;;;;14.45;4.10;;;15.30;73.70;;;;;;5017654;28;20045;-80
2023/03/15 07:32:25;;;;;;;21.77;4.40;;;15.30;73.60;;;;;;5018911;28;20034;-81
2023/03/15 07:34:51;;;;;;;16.45;4.28;;;15.40;73.70;;;;;;5015553;28;20053;-80
2023/03/15 07:37:17;;;;;;;25.05;4.55;;;15.40;73.40;;;;;;5019290;28;20034;-80
2023/03/15 07:39:43;;;;;;;18.42;3.80;;;15.50;73.30;;;;;;5019426;28;20037;-81
2023/03/15 07:42:09;;;;;;;20.70;4.47;;;15.60;73.00;;;;;;5000632;28;20045;-75
2023/03/15 07:44:34;;;;;;;13.43;3.63;;;15.70;72.70;;;;;;5015614;28;20113;-81
2023/03/15 07:47:00;;;;;;;17.73;3.47;;;15.70;72.50;;;;;;5017689;28;20070;-81
2023/03/15 07:49:26;;;;;;;14.32;3.33;;;15.80;72.40;;;;;;5017659;28;20405;-81
2023/03/15 07:51:52;;;;;;;14.85;3.75;;;15.80;72.50;;;;;;5017070;28;20561;-81
2023/03/15 07:54:18;;;;;;;13.82;4.03;;;15.90;72.20;;;;;;5017737;28;20042;-82
2023/03/15 07:56:44;;;;;;;17.95;3.70;;;15.90;71.40;;;;;;5015966;28;20058;-81
2023/03/15 07:59:09;;;;;;;13.05;3.22;;;15.90;70.90;;;;;;5016305;28;20042;-80
2023/03/15 08:01:35;;;;;;;15.65;3.50;;;15.90;70.60;;;;;;5016311;28;20033;-82
2023/03/15 08:04:01;;;;;;;14.35;3.65;;;15.90;70.30;;;;;;5014270;28;20448;-81
2023/03/15 08:06:27;;;;;;;11.27;3.17;;;15.90;70.30;;;;;;5015374;28;20026;-81
2023/03/15 08:08:52;;;;;;;13.90;4.43;;;16.00;70.30;;;;;;5015258;28;20400;-75
2023/03/15 08:11:18;;;;;;;12.90;3.33;;;16.00;70.10;;;;;;4995952;28;20037;-77
2023/03/15 08:13:44;;;;;;;14.27;3.28;;;16.00;69.40;;;;;;5014423;28;20045;-78
2023/03/15 08:16:09;;;;;;;11.07;3.20;;;16.10;69.90;;;;;;5013788;28;20406;-77
2023/03/15 08:18:35;;;;;;;11.88;2.90;;;16.10;69.20;;;;;;5013390;28;20041;-76
2023/03/15 08:21:01;;;;;;;9.95;3.33;;;16.00;68.70;;;;;;5014501;28;20030;-77
2023/03/15 08:23:27;;;;;;;14.20;3.00;;;16.00;68.20;;;;;;5015630;28;20034;-78
2023/03/15 08:25:52;;;;;;;13.85;3.28;;;16.00;68.20;;;;;;5016306;28;20366;-78
2023/03/15 08:28:18;;;;;;;8.90;3.00;;;16.00;67.60;;;;;;5013730;28;20443;-75
2023/03/15 08:30:44;;;;;;;8.10;1.98;;;16.10;67.20;;;;;;4996508;28;20026;-79
2023/03/15 08:33:11;;;;;;;10.98;2.40;;;16.10;66.50;;;;;;4995985;28;20046;-79
2023/03/15 08:35:37;;;;;;;13.60;2.50;;;16.10;66.10;;;;;;5013505;28;20478;-78
2023/03/15 08:38:02;;;;;;;10.50;2.53;;;16.10;65.90;;;;;;5013840;28;20089;-77
2023/03/15 08:40:29;;;;;;;11.32;1.80;;;16.20;65.40;;;;;;5012005;28;20486;-77
2023/03/15 08:42:56;;;;;;;4.40;1.48;;;16.20;64.10;;;;;;5014019;28;20482;-76
2023/03/15 08:45:25;;;;;;;10.80;1.95;;;16.20;63.70;;;;;;5014306;28;20401;-76
2023/03/15 08:47:59;;;;;;;10.75;2.20;;;16.20;63.70;;;;;;5014855;28;20026;-77
2023/03/15 08:50:26;;;;;;;8.70;1.90;;;16.30;63.40;;;;;;5014389;28;20041;-78
2023/03/15 08:52:52;;;;;;;5.63;1.90;;;16.30;63.10;;;;;;5014502;28;20034;-78
2023/03/15 08:55:17;;;;;;;9.05;2.45;;;16.40;63.70;;;;;;5014737;28;20068;-78
2023/03/15 08:57:43;;;;;;;9.60;2.53;;;16.40;62.90;;;;;;5014435;28;20033;-78
2023/03/15 09:00:21;;;;;;;9.70;1.90;;;16.40;63.00;;;;;;5014461;28;20030;-78
2023/03/15 09:02:48;;;;;;;8.65;1.65;;;16.30;62.60;;;;;;5013255;28;20050;-79
2023/03/15 09:05:17;;;;;;;8.85;1.98;;;16.30;62.70;;;;;;5034585;28;20049;-78
2023/03/15 09:07:44;;;;;;;8.00;1.85;;;16.30;62.70;;;;;;5037730;28;20037;-77
2023/03/15 09:10:14;;;;;;;6.68;2.10;;;16.30;63.00;;;;;;5033371;28;20141;-78
2023/03/15 09:12:45;;;;;;;9.68;2.15;;;16.30;63.10;;;;;;5032986;28;20034;-77
2023/03/15 09:15:11;;;;;;;7.70;2.03;;;16.30;63.00;;;;;;5032127;28;20109;-78
2023/03/15 09:17:40;;;;;;;9.02;2.13;;;16.30;63.20;;;;;;5015457;28;20034;-77
2023/03/15 09:20:13;;;;;;;6.03;1.60;;;16.30;63.20;;;;;;5032472;28;20026;-76
2023/03/15 09:22:42;;;;;;;7.43;1.77;;;16.40;63.30;;;;;;5032647;28;20081;-79
2023/03/15 09:25:09;;;;;;;7.72;1.92;;;16.40;63.30;;;;;;5033000;28;20034;-77
2023/03/15 09:27:35;;;;;;;8.23;1.73;;;16.40;63.30;;;;;;5032588;28;20469;-76
2023/03/15 09:30:01;;;;;;;7.10;1.50;;;16.40;63.20;;;;;;5033043;28;20044;-78
2023/03/15 09:32:27;;;;;;;8.00;1.67;;;16.40;63.20;;;;;;5032762;28;20025;-76
2023/03/15 09:34:52;;;;;;;6.60;1.63;;;16.50;63.20;;;;;;5032929;28;20117;-78
2023/03/15 09:37:20;;;;;;;5.10;1.52;;;16.50;62.70;;;;;;5032550;28;20028;-77
2023/03/15 09:39:46;;;;;;;4.95;1.60;;;16.60;62.20;;;;;;5035111;28;20093;-78
2023/03/15 09:42:29;;;;;;;7.30;1.55;;;16.60;61.40;;;;;;5033538;28;20033;-76
2023/03/15 09:45:03;;;;;;;6.13;2.10;;;16.60;60.80;;;;;;5033351;28;20079;-76
2023/03/15 09:47:47;;;;;;;9.40;1.60;;;16.70;60.60;;;;;;5015415;28;20057;-77
2023/03/15 09:50:31;;;;;;;4.85;1.30;;;16.80;60.40;;;;;;5033853;28;20038;-76
2023/03/15 09:53:04;;;;;;;6.85;1.27;;;16.90;60.00;;;;;;5047115;28;20041;-76
2023/03/15 09:55:30;;;;;;;2.42;1.08;;;16.90;58.60;;;;;;5050886;28;20098;-76
2023/03/15 09:58:16;;;;;;;4.32;1.10;;;17.00;57.00;;;;;;5041878;28;20417;-78
2023/03/15 10:00:49;;;;;;;4.88;1.05;;;16.90;54.60;;;;;;5033184;28;20033;-78
2023/03/15 10:03:32;;;;;;;3.72;0.80;;;16.90;55.20;;;;;;5015056;28;20046;-79
2023/03/15 10:06:26;;;;;;;3.20;0.88;;;16.90;55.20;;;;;;5013973;28;20465;-77
2023/03/15 10:09:13;;;;;;;5.28;0.95;;;16.90;55.40;;;;;;5008645;28;20450;-77
2023/03/15 10:11:52;;;;;;;3.90;0.80;;;16.90;54.00;;;;;;5013205;28;20038;-78
2023/03/15 10:14:29;;;;;;;4.47;0.93;;;16.90;54.00;;;;;;5013705;28;20506;-79
2023/03/15 10:16:55;;;;;;;3.20;0.90;;;17.00;54.00;;;;;;5013337;28;20037;-78
2023/03/15 10:19:49;;;;;;;3.10;0.90;;;17.00;53.40;;;;;;5013604;28;20045;-77
2023/03/15 10:22:35;;;;;;;2.78;1.10;;;17.10;52.50;;;;;;5013768;28;20038;-78
2023/03/15 10:25:23;;;;;;;3.42;1.00;;;17.10;53.00;;;;;;5013813;28;20048;-79
2023/03/15 10:28:31;;;;;;;2.17;0.98;;;17.20;53.40;;;;;;4998030;28;20105;-78
2023/03/15 10:30:59;;;;;;;4.68;1.35;;;17.30;53.10;;;;;;4994830;28;20045;-78
2023/03/15 10:33:37;;;;;;;3.55;1.00;;;17.30;52.30;;;;;;4998448;28;20084;-78
2023/03/15 10:36:21;;;;;;;2.20;0.80;;;17.50;51.80;;;;;;5016227;28;20083;-77
2023/03/15 10:38:49;;;;;;;7.65;1.15;;;17.50;51.10;;;;;;5019514;28;20030;-78
2023/03/15 10:41:39;;;;;;;4.80;0.80;;;17.60;51.80;;;;;;5016848;28;20033;-78
2023/03/15 10:44:12;;;;;;;1.42;0.70;;;17.70;51.00;;;;;;5015355;28;20037;-76
2023/03/15 10:46:38;;;;;;;1.93;0.87;;;17.70;50.10;;;;;;5015178;28;20042;-77
2023/03/15 10:49:11;;;;;;;2.08;0.90;;;17.70;50.20;;;;;;5015335;28;20049;-77
2023/03/15 10:51:41;;;;;;;2.80;0.77;;;17.80;50.40;;;;;;5015321;28;20034;-77
2023/03/15 10:54:17;;;;;;;2.47;0.90;;;17.90;50.20;;;;;;5015311;28;20510;-76
2023/03/15 10:56:58;;;;;;;3.85;1.08;;;17.90;49.60;;;;;;5015046;28;20040;-77
2023/03/15 10:59:26;;;;;;;2.97;1.05;;;18.00;49.60;;;;;;5015320;28;20038;-77
2023/03/15 11:02:06;;;;;;;3.42;0.77;;;18.10;49.90;;;;;;5015552;28;20096;-76
2023/03/15 11:04:32;;;;;;;2.70;0.88;;;18.10;49.00;;;;;;5016079;28;20045;-77
2023/03/15 11:07:02;;;;;;;2.00;0.60;;;18.00;48.10;;;;;;5015093;28;20390;-78
2023/03/15 11:09:43;;;;;;;2.58;0.70;;;18.00;47.30;;;;;;5014685;28;20053;-77
2023/03/15 11:12:30;;;;;;;2.47;0.50;;;17.90;47.60;;;;;;5002058;28;20038;-76
2023/03/15 11:15:00;;;;;;;0.90;0.40;;;17.90;48.20;;;;;;5016764;28;20466;-77
2023/03/15 11:17:30;;;;;;;2.60;0.65;;;18.00;48.20;;;;;;5014505;28;20030;-76
2023/03/15 11:20:24;;;;;;;3.13;0.70;;;18.10;47.80;;;;;;5014645;28;20038;-77
2023/03/15 11:22:52;;;;;;;2.15;0.70;;;18.10;47.10;;;;;;5015080;28;20179;-76
2023/03/15 11:25:19;;;;;;;0.57;0.38;;;18.10;47.10;;;;;;5018275;28;20038;-76
2023/03/15 11:27:52;;;;;;;2.63;0.57;;;18.10;46.80;;;;;;5015511;28;20061;-76
2023/03/15 11:30:24;;;;;;;7.22;1.38;;;18.20;46.80;;;;;;5015027;28;20030;-76
2023/03/15 11:32:49;;;;;;;2.72;0.70;;;18.10;46.60;;;;;;4996998;28;20088;-77
2023/03/15 11:35:37;;;;;;;1.75;0.80;;;18.10;46.60;;;;;;5013546;28;20041;-76
2023/03/15 11:38:34;;;;;;;2.63;0.50;;;18.00;46.30;;;;;;5014247;28;20170;-76
2023/03/15 11:41:08;;;;;;;2.90;0.60;;;18.00;46.40;;;;;;5006444;28;20049;-77
2023/03/15 11:43:49;;;;;;;1.83;0.70;;;18.00;46.40;;;;;;5014318;28;20482;-75
2023/03/15 11:46:43;;;;;;;2.55;0.65;;;18.00;46.70;;;;;;5014317;28;20029;-76
2023/03/15 11:49:28;;;;;;;2.13;0.70;;;18.00;45.50;;;;;;5004663;28;20052;-76
2023/03/15 11:51:55;;;;;;;2.25;0.80;;;18.10;46.70;;;;;;5014767;28;20022;-76
2023/03/15 11:54:23;;;;;;;2.72;0.73;;;18.00;46.90;;;;;;5013659;28;20038;-77
2023/03/15 11:56:53;;;;;;;1.75;0.60;;;18.10;47.10;;;;;;5014553;28;20049;-77
2023/03/15 11:59:45;;;;;;;3.03;0.57;;;18.20;47.40;;;;;;5014160;28;20066;-76
2023/03/15 12:02:12;;;;;;;1.52;0.50;;;18.20;47.10;;;;;;5009219;28;20065;-77
2023/03/15 12:04:49;;;;;;;5.10;1.73;;;18.20;47.00;;;;;;5014051;28;20044;-77
2023/03/15 12:07:17;;;;;;;3.00;0.70;;;18.20;47.20;;;;;;5014082;28;20108;-77
2023/03/15 12:09:55;;;;;;;1.50;0.68;;;18.30;46.00;;;;;;4997304;28;20092;-76
2023/03/15 12:12:23;;;;;;;3.78;0.77;;;18.30;47.00;;;;;;5015047;28;20030;-77
2023/03/15 12:15:18;;;;;;;5.00;1.23;;;18.40;46.90;;;;;;5014510;28;20084;-77
2023/03/15 12:17:59;;;;;;;2.20;0.75;;;18.40;45.30;;;;;;4971062;28;20067;-76
2023/03/15 12:20:38;;;;;;;3.08;0.73;;;18.40;45.90;;;;;;4995918;28;20044;-77
2023/03/15 12:23:18;;;;;;;6.15;1.05;;;18.40;45.60;;;;;;5013668;28;20030;-78
2023/03/15 12:26:02;;;;;;;4.30;0.88;;;18.50;45.90;;;;;;5013982;28;20083;-78
2023/03/15 12:28:35;;;;;;;1.25;0.60;;;18.50;46.40;;;;;;5013471;28;20069;-77
2023/03/15 12:31:04;;;;;;;1.95;0.77;;;18.50;46.90;;;;;;5013666;28;20149;-78
2023/03/15 12:33:33;;;;;;;3.65;1.13;;;18.50;47.30;;;;;;5013561;28;20042;-77
2023/03/15 12:36:01;;;;;;;1.13;0.50;;;18.50;46.70;;;;;;5013915;28;20478;-77
2023/03/15 12:38:36;;;;;;;2.80;0.90;;;18.50;47.00;;;;;;5013561;28;20497;-77
2023/03/15 12:41:25;;;;;;;2.35;0.47;;;18.50;46.50;;;;;;5013673;28;20120;-79
2023/03/15 12:43:51;;;;;;;1.20;0.57;;;18.50;46.50;;;;;;5019171;28;20060;-77
2023/03/15 12:46:46;;;;;;;1.85;0.80;;;18.50;46.50;;;;;;5035519;28;20033;-78
2023/03/15 12:49:27;;;;;;;1.65;0.50;;;18.50;46.10;;;;;;5033174;28;20042;-78